createdAt,value
2017-09-05T00:00:03.878Z,51.95
2017-09-05T00:01:04.220Z,51.56
2017-09-05T00:02:04.239Z,51.56
2017-09-05T00:03:03.938Z,51.56
2017-09-05T00:04:03.961Z,51.56
2017-09-05T00:05:04.304Z,51.56
2017-09-05T00:06:04.322Z,51.65
2017-09-05T00:07:04.341Z,51.65
2017-09-05T00:08:04.058Z,51.65
2017-09-05T00:09:04.387Z,51.85
2017-09-05T00:10:04.404Z,51.85
2017-09-05T00:11:04.427Z,51.75
2017-09-05T00:12:04.448Z,51.85
2017-09-05T00:13:04.470Z,51.75
2017-09-05T00:14:04.492Z,51.85
2017-09-05T00:15:04.193Z,51.95
2017-09-05T00:16:04.211Z,51.85
2017-09-05T00:17:04.234Z,52.14
2017-09-05T00:18:04.578Z,52.01
2017-09-05T00:19:04.594Z,52.11
2017-09-05T00:20:04.614Z,52.04
2017-09-05T00:21:04.635Z,51.92
2017-09-05T00:22:04.333Z,52.3
2017-09-05T00:23:04.354Z,52.3
2017-09-05T00:24:04.700Z,52.4
2017-09-05T00:25:04.720Z,52.5
2017-09-05T00:26:04.420Z,52.3
2017-09-05T00:27:04.759Z,52.11
2017-09-05T00:28:04.461Z,52.2
2017-09-05T00:29:05.004Z,52.69
2017-09-05T00:30:04.825Z,52.3
2017-09-05T00:31:04.520Z,52.69
2017-09-05T00:32:04.544Z,52.5
2017-09-05T00:33:04.884Z,52.3
2017-09-05T00:34:04.901Z,52.59
2017-09-05T00:35:04.602Z,52.4
2017-09-05T00:36:04.942Z,52.5
2017-09-05T00:37:04.963Z,52.69
2017-09-05T00:38:04.985Z,52.87
2017-09-05T00:39:05.014Z,52.87
2017-09-05T00:40:04.703Z,52.78
2017-09-05T00:41:05.046Z,52.59
2017-09-05T00:42:05.073Z,52.78
2017-09-05T00:43:05.085Z,52.87
2017-09-05T00:44:04.785Z,52.97
2017-09-05T00:45:05.132Z,52.78
2017-09-05T00:46:05.147Z,52.97
2017-09-05T00:47:04.843Z,53.16
2017-09-05T00:48:05.186Z,52.87
2017-09-05T00:49:04.884Z,53.16
2017-09-05T00:50:05.250Z,53.26
2017-09-05T00:51:04.927Z,52.87
2017-09-05T00:52:04.948Z,53.45
2017-09-05T00:53:05.294Z,53.45
2017-09-05T00:54:04.989Z,53.36
2017-09-05T00:55:05.010Z,53.26
2017-09-05T00:56:05.353Z,53.26
2017-09-05T00:57:05.048Z,53.26
2017-09-05T00:58:05.391Z,52.69
2017-09-05T00:59:05.408Z,53.07
2017-09-05T01:00:05.105Z,53.16
2017-09-05T01:01:05.455Z,53.04
2017-09-05T01:02:05.150Z,52.5
2017-09-05T01:03:05.492Z,52.66
2017-09-05T01:04:05.187Z,53.62
2017-09-05T01:05:05.209Z,53.52
2017-09-05T01:06:05.553Z,52.97
2017-09-05T01:07:05.249Z,53.42
2017-09-05T01:08:05.596Z,53.42
2017-09-05T01:09:05.292Z,53.52
2017-09-05T01:10:05.311Z,53.71
2017-09-05T01:11:05.651Z,53.23
2017-09-05T01:12:05.693Z,53.23
2017-09-05T01:13:05.696Z,53.81
2017-09-05T01:14:05.389Z,53.23
2017-09-05T01:15:05.735Z,53.14
2017-09-05T01:16:05.755Z,53.81
2017-09-05T01:17:05.451Z,53.62
2017-09-05T01:18:05.794Z,54.19
2017-09-05T01:19:05.492Z,54.1
2017-09-05T01:20:05.913Z,54.1
2017-09-05T01:21:05.862Z,53.91
2017-09-05T01:22:05.549Z,54
2017-09-05T01:23:05.897Z,54.28
2017-09-05T01:24:05.911Z,54
2017-09-05T01:25:05.613Z,53.81
2017-09-05T01:26:05.630Z,54.28
2017-09-05T01:27:05.654Z,54.28
2017-09-05T01:28:05.995Z,54.38
2017-09-05T01:29:05.691Z,54.19
2017-09-05T01:30:05.713Z,54.28
2017-09-05T01:31:06.055Z,53.81
2017-09-05T01:32:05.752Z,54.38
2017-09-05T01:33:05.772Z,53.91
2017-09-05T01:34:06.114Z,54.28
2017-09-05T01:35:05.812Z,54.38
2017-09-05T01:36:05.830Z,54.28
2017-09-05T01:37:05.852Z,54
2017-09-05T01:38:05.872Z,54.57
2017-09-05T01:39:05.891Z,54.57
2017-09-05T01:40:06.229Z,54.38
2017-09-05T01:41:05.930Z,54.28
2017-09-05T01:42:06.275Z,54.67
2017-09-05T01:43:05.972Z,54.48
2017-09-05T01:44:06.315Z,54.28
2017-09-05T01:45:06.010Z,54.38
2017-09-05T01:46:06.352Z,54.86
2017-09-05T01:47:06.142Z,54.19
2017-09-05T01:48:06.450Z,54.96
2017-09-05T01:49:06.428Z,54.19
2017-09-05T01:50:06.114Z,54.86
2017-09-05T01:51:06.657Z,54.77
2017-09-05T01:52:06.471Z,54.86
2017-09-05T01:53:06.490Z,54.38
2017-09-05T01:54:06.578Z,54.28
2017-09-05T01:55:06.230Z,54.77
2017-09-05T01:56:06.555Z,54.93
2017-09-05T01:57:06.248Z,54.96
2017-09-05T01:58:06.270Z,54.83
2017-09-05T01:59:06.611Z,54.74
2017-09-05T02:00:06.633Z,54.93
2017-09-05T02:01:06.328Z,54.64
2017-09-05T02:02:06.345Z,54.83
2017-09-05T02:03:06.694Z,54.74
2017-09-05T02:04:06.387Z,54.93
2017-09-05T02:05:06.734Z,54.83
2017-09-05T02:06:06.429Z,55.02
2017-09-05T02:07:06.889Z,55.12
2017-09-05T02:08:06.466Z,55.31
2017-09-05T02:09:06.908Z,55.22
2017-09-05T02:10:06.507Z,55.31
2017-09-05T02:11:06.529Z,55.12
2017-09-05T02:12:06.560Z,55.12
2017-09-05T02:13:06.935Z,55.6
2017-09-05T02:14:06.937Z,54.93
2017-09-05T02:15:06.601Z,55.6
2017-09-05T02:16:06.949Z,55.02
2017-09-05T02:17:07.074Z,55.02
2017-09-05T02:18:07.072Z,55.6
2017-09-05T02:19:07.101Z,55.02
2017-09-05T02:20:07.099Z,54.83
2017-09-05T02:21:07.100Z,54.93
2017-09-05T02:22:07.105Z,55.22
2017-09-05T02:23:06.765Z,55.31
2017-09-05T02:24:07.215Z,55.02
2017-09-05T02:25:06.914Z,55.31
2017-09-05T02:26:07.250Z,55.22
2017-09-05T02:27:07.239Z,55.6
2017-09-05T02:28:06.888Z,55.51
2017-09-05T02:29:07.247Z,55.51
2017-09-05T02:30:06.947Z,55.31
2017-09-05T02:31:06.946Z,55.31
2017-09-05T02:32:07.264Z,55.88
2017-09-05T02:33:07.287Z,55.69
2017-09-05T02:34:07.303Z,55.41
2017-09-05T02:35:07.322Z,55.79
2017-09-05T02:36:07.346Z,55.98
2017-09-05T02:37:07.108Z,55.6
2017-09-05T02:38:07.109Z,55.79
2017-09-05T02:39:07.218Z,55.79
2017-09-05T02:40:07.417Z,55.79
2017-09-05T02:41:07.153Z,55.88
2017-09-05T02:42:07.152Z,55.88
2017-09-05T02:43:07.491Z,55.51
2017-09-05T02:44:07.504Z,55.51
2017-09-05T02:45:07.519Z,55.51
2017-09-05T02:46:07.246Z,56.08
2017-09-05T02:47:07.556Z,55.88
2017-09-05T02:48:07.577Z,55.47
2017-09-05T02:49:07.271Z,55.88
2017-09-05T02:50:07.295Z,55.51
2017-09-05T02:51:07.640Z,56.17
2017-09-05T02:52:07.657Z,56.24
2017-09-05T02:53:07.353Z,56.05
2017-09-05T02:54:07.373Z,56.24
2017-09-05T02:55:07.718Z,55.88
2017-09-05T02:56:07.730Z,56.17
2017-09-05T02:57:07.951Z,56.34
2017-09-05T02:58:07.776Z,56.15
2017-09-05T02:59:07.796Z,56.15
2017-09-05T03:00:07.489Z,56.15
2017-09-05T03:01:07.506Z,56.34
2017-09-05T03:02:07.859Z,56.15
2017-09-05T03:03:07.872Z,56.05
2017-09-05T03:04:07.897Z,56.15
2017-09-05T03:05:07.591Z,56.56
2017-09-05T03:06:07.927Z,56.43
2017-09-05T03:07:07.622Z,57.2
2017-09-05T03:08:07.967Z,56.53
2017-09-05T03:09:07.662Z,57.1
2017-09-05T03:10:08.012Z,57.01
2017-09-05T03:11:07.699Z,56.91
2017-09-05T03:12:07.722Z,56.72
2017-09-05T03:13:08.066Z,56.24
2017-09-05T03:14:07.757Z,56.53
2017-09-05T03:15:07.881Z,56.62
2017-09-05T03:16:08.184Z,56.34
2017-09-05T03:17:07.882Z,56.53
2017-09-05T03:18:07.879Z,56.72
2017-09-05T03:19:08.188Z,56.82
2017-09-05T03:20:07.888Z,56.72
2017-09-05T03:21:08.222Z,57.2
2017-09-05T03:22:08.241Z,57.1
2017-09-05T03:23:08.043Z,57.1
2017-09-05T03:24:08.272Z,56.91
2017-09-05T03:25:08.299Z,57.01
2017-09-05T03:26:08.321Z,56.53
2017-09-05T03:27:08.338Z,56.72
2017-09-05T03:28:08.354Z,56.72
2017-09-05T03:29:08.052Z,57.29
2017-09-05T03:30:08.400Z,56.91
2017-09-05T03:31:08.411Z,56.72
2017-09-05T03:32:08.430Z,57.01
2017-09-05T03:33:08.128Z,56.82
2017-09-05T03:34:08.468Z,56.72
2017-09-05T03:35:08.166Z,56.91
2017-09-05T03:36:08.512Z,57.01
2017-09-05T03:37:08.208Z,57.01
2017-09-05T03:38:08.226Z,57.01
2017-09-05T03:39:08.567Z,57.01
2017-09-05T03:40:08.628Z,57.01
2017-09-05T03:41:08.609Z,56.91
2017-09-05T03:42:08.296Z,57.2
2017-09-05T03:43:08.320Z,57.1
2017-09-05T03:44:08.663Z,57.29
2017-09-05T03:45:08.358Z,57.29
2017-09-05T03:46:08.702Z,57.39
2017-09-05T03:47:08.724Z,57.39
2017-09-05T03:48:08.737Z,56.91
2017-09-05T03:49:08.433Z,57.39
2017-09-05T03:50:08.782Z,57.2
2017-09-05T03:51:08.802Z,57.29
2017-09-05T03:52:08.493Z,57.1
2017-09-05T03:53:08.835Z,57.29
2017-09-05T03:54:08.858Z,57.39
2017-09-05T03:55:08.878Z,57.29
2017-09-05T03:56:08.569Z,57.2
2017-09-05T03:57:08.588Z,57.39
2017-09-05T03:58:08.933Z,57.39
2017-09-05T03:59:08.627Z,57.29
2017-09-05T04:00:08.679Z,57.36
2017-09-05T04:01:08.672Z,57.2
2017-09-05T04:02:09.011Z,57.48
2017-09-05T04:03:09.032Z,57.29
2017-09-05T04:04:09.048Z,57.36
2017-09-05T04:05:09.068Z,57.65
2017-09-05T04:06:09.090Z,57.36
2017-09-05T04:07:08.783Z,57.48
2017-09-05T04:08:08.799Z,57.46
2017-09-05T04:09:09.153Z,57.17
2017-09-05T04:10:09.162Z,57.46
2017-09-05T04:11:09.210Z,57.55
2017-09-05T04:12:09.203Z,57.26
2017-09-05T04:13:08.897Z,57.58
2017-09-05T04:14:09.240Z,57.65
2017-09-05T04:15:09.254Z,57.46
2017-09-05T04:16:09.281Z,57.75
2017-09-05T04:17:08.973Z,57.55
2017-09-05T04:18:09.309Z,57.75
2017-09-05T04:19:09.330Z,57.75
2017-09-05T04:20:09.032Z,57.75
2017-09-05T04:21:09.047Z,57.65
2017-09-05T04:22:09.396Z,58.12
2017-09-05T04:23:09.414Z,57.55
2017-09-05T04:24:09.426Z,57.93
2017-09-05T04:25:09.446Z,57.84
2017-09-05T04:26:09.143Z,57.93
2017-09-05T04:27:09.163Z,57.84
2017-09-05T04:28:09.181Z,58.03
2017-09-05T04:29:09.519Z,57.93
2017-09-05T04:30:09.542Z,58.03
2017-09-05T04:31:09.245Z,58.22
2017-09-05T04:32:09.580Z,58.03
2017-09-05T04:33:09.602Z,58.03
2017-09-05T04:34:09.616Z,58.12
2017-09-05T04:35:09.636Z,58.03
2017-09-05T04:36:09.662Z,57.93
2017-09-05T04:37:09.369Z,58.12
2017-09-05T04:38:09.370Z,58.12
2017-09-05T04:39:09.710Z,58.22
2017-09-05T04:40:09.410Z,57.93
2017-09-05T04:41:09.427Z,58.12
2017-09-05T04:42:09.884Z,58.12
2017-09-05T04:43:09.832Z,58.12
2017-09-05T04:44:09.831Z,58.12
2017-09-05T04:45:09.504Z,58.03
2017-09-05T04:46:09.974Z,58.61
2017-09-05T04:47:09.962Z,58.61
2017-09-05T04:48:09.562Z,58.41
2017-09-05T04:49:09.994Z,58.51
2017-09-05T04:50:09.994Z,57.84
2017-09-05T04:51:09.638Z,58.51
2017-09-05T04:52:09.961Z,58.51
2017-09-05T04:53:09.777Z,58.51
2017-09-05T04:54:10.120Z,58.03
2017-09-05T04:55:10.109Z,58.12
2017-09-05T04:56:09.803Z,58.61
2017-09-05T04:57:10.288Z,58.03
2017-09-05T04:58:10.288Z,58.61
2017-09-05T04:59:09.889Z,58.98
2017-09-05T05:00:09.970Z,58.7
2017-09-05T05:01:10.296Z,58.22
2017-09-05T05:02:09.979Z,57.93
2017-09-05T05:03:09.977Z,59.08
2017-09-05T05:04:10.293Z,58.8
2017-09-05T05:05:09.973Z,58.8
2017-09-05T05:06:10.432Z,58.89
2017-09-05T05:07:10.435Z,58.8
2017-09-05T05:08:10.437Z,58.89
2017-09-05T05:09:10.436Z,58.7
2017-09-05T05:10:10.435Z,58.41
2017-09-05T05:11:10.434Z,58.12
2017-09-05T05:12:10.433Z,58.22
2017-09-05T05:13:10.125Z,58.8
2017-09-05T05:14:10.125Z,58.8
2017-09-05T05:15:10.156Z,58.8
2017-09-05T05:16:10.157Z,58.7
2017-09-05T05:17:10.509Z,58.8
2017-09-05T05:18:10.182Z,59.08
2017-09-05T05:19:10.193Z,58.98
2017-09-05T05:20:10.515Z,58.89
2017-09-05T05:21:10.512Z,59.08
2017-09-05T05:22:10.529Z,59.56
2017-09-05T05:23:10.540Z,59.18
2017-09-05T05:24:10.240Z,59.27
2017-09-05T05:25:10.586Z,59.27
2017-09-05T05:26:10.275Z,59.75
2017-09-05T05:27:10.622Z,59.66
2017-09-05T05:28:10.855Z,59.66
2017-09-05T05:29:10.431Z,59.08
2017-09-05T05:30:10.681Z,59.27
2017-09-05T05:31:10.373Z,59.47
2017-09-05T05:32:10.392Z,59.18
2017-09-05T05:33:10.733Z,59.18
2017-09-05T05:34:10.787Z,59.47
2017-09-05T05:35:10.452Z,59.56
2017-09-05T05:36:10.790Z,59.47
2017-09-05T05:37:10.509Z,59.47
2017-09-05T05:38:10.524Z,58.8
2017-09-05T05:39:11.292Z,59.18
2017-09-05T05:40:10.576Z,59.56
2017-09-05T05:41:10.880Z,59.66
2017-09-05T05:42:10.905Z,59.08
2017-09-05T05:43:10.599Z,59.66
2017-09-05T05:44:10.944Z,58.89
2017-09-05T05:45:10.959Z,59.66
2017-09-05T05:46:10.750Z,59.47
2017-09-05T05:47:11.266Z,59.66
2017-09-05T05:48:10.694Z,58.98
2017-09-05T05:49:10.710Z,59.56
2017-09-05T05:50:10.731Z,59.47
2017-09-05T05:51:11.116Z,59.18
2017-09-05T05:52:11.090Z,59.47
2017-09-05T05:53:10.790Z,59.47
2017-09-05T05:54:11.128Z,59.27
2017-09-05T05:55:10.844Z,59.27
2017-09-05T05:56:10.841Z,59.37
2017-09-05T05:57:11.179Z,59.18
2017-09-05T05:58:10.883Z,59.47
2017-09-05T05:59:10.999Z,59.37
2017-09-05T06:00:10.919Z,59.66
2017-09-05T06:01:11.258Z,59.37
2017-09-05T06:02:11.282Z,59.18
2017-09-05T06:03:10.972Z,59.47
2017-09-05T06:04:11.020Z,59.75
2017-09-05T06:05:11.012Z,59.75
2017-09-05T06:06:11.450Z,59.66
2017-09-05T06:07:11.462Z,59.47
2017-09-05T06:08:11.486Z,59.75
2017-09-05T06:09:11.453Z,59.75
2017-09-05T06:10:11.105Z,59.84
2017-09-05T06:11:11.121Z,60.04
2017-09-05T06:12:11.462Z,60.23
2017-09-05T06:13:11.161Z,60.04
2017-09-05T06:14:11.190Z,59.84
2017-09-05T06:15:11.520Z,59.84
2017-09-05T06:16:11.219Z,59.75
2017-09-05T06:17:11.237Z,59.84
2017-09-05T06:18:11.255Z,60.04
2017-09-05T06:19:11.597Z,60.55
2017-09-05T06:20:11.616Z,60.23
2017-09-05T06:21:11.310Z,60.52
2017-09-05T06:22:11.720Z,59.94
2017-09-05T06:23:11.779Z,60.16
2017-09-05T06:24:11.369Z,60.26
2017-09-05T06:25:11.388Z,60.45
2017-09-05T06:26:11.730Z,60.26
2017-09-05T06:27:11.745Z,60.74
2017-09-05T06:28:11.440Z,60.45
2017-09-05T06:29:11.463Z,60.35
2017-09-05T06:30:11.804Z,60.93
2017-09-05T06:31:11.820Z,60.83
2017-09-05T06:32:11.578Z,60.55
2017-09-05T06:33:11.876Z,60.93
2017-09-05T06:34:11.589Z,61.22
2017-09-05T06:35:11.900Z,61.22
2017-09-05T06:36:11.918Z,61.31
2017-09-05T06:37:11.714Z,61.22
2017-09-05T06:38:11.955Z,61.22
2017-09-05T06:39:11.652Z,61.12
2017-09-05T06:40:11.993Z,61.31
2017-09-05T06:41:11.693Z,60.93
2017-09-05T06:42:12.029Z,60.93
2017-09-05T06:43:12.043Z,60.93
2017-09-05T06:44:11.743Z,61.02
2017-09-05T06:45:11.765Z,61.25
2017-09-05T06:46:11.798Z,61.63
2017-09-05T06:47:11.798Z,61.15
2017-09-05T06:48:12.146Z,61.54
2017-09-05T06:49:12.162Z,61.34
2017-09-05T06:50:11.858Z,61.54
2017-09-05T06:51:12.201Z,61.05
2017-09-05T06:52:12.336Z,60.86
2017-09-05T06:53:12.233Z,60.86
2017-09-05T06:54:11.932Z,61.15
2017-09-05T06:55:11.950Z,60.96
2017-09-05T06:56:11.972Z,60.86
2017-09-05T06:57:12.315Z,61.05
2017-09-05T06:58:12.012Z,60.96
2017-09-05T06:59:12.027Z,60.99
2017-09-05T07:00:12.046Z,61.18
2017-09-05T07:01:12.065Z,60.89
2017-09-05T07:02:12.082Z,60.99
2017-09-05T07:03:12.430Z,60.99
2017-09-05T07:04:12.447Z,60.7
2017-09-05T07:05:12.465Z,61.37
2017-09-05T07:06:12.163Z,61.37
2017-09-05T07:07:12.504Z,60.51
2017-09-05T07:08:12.525Z,60.99
2017-09-05T07:09:12.539Z,60.89
2017-09-05T07:10:12.598Z,60.89
2017-09-05T07:11:12.703Z,60.7
2017-09-05T07:12:12.274Z,60.89
2017-09-05T07:13:12.626Z,60.89
2017-09-05T07:14:12.637Z,60.89
2017-09-05T07:15:12.336Z,60.83
2017-09-05T07:16:12.351Z,60.54
2017-09-05T07:17:12.373Z,60.44
2017-09-05T07:18:12.715Z,60.35
2017-09-05T07:19:12.732Z,60.44
2017-09-05T07:20:12.751Z,60.35
2017-09-05T07:21:12.769Z,60.06
2017-09-05T07:22:12.468Z,60.54
2017-09-05T07:23:12.486Z,60.64
2017-09-05T07:24:12.504Z,60.28
2017-09-05T07:25:12.522Z,60.28
2017-09-05T07:26:12.546Z,60.28
2017-09-05T07:27:12.893Z,59.61
2017-09-05T07:28:12.580Z,59.61
2017-09-05T07:29:12.930Z,59.9
2017-09-05T07:30:12.952Z,59.8
2017-09-05T07:31:12.960Z,59.8
2017-09-05T07:32:12.664Z,59.8
2017-09-05T07:33:13.010Z,59.61
2017-09-05T07:34:12.797Z,59.61
2017-09-05T07:35:13.044Z,59.93
2017-09-05T07:36:12.736Z,59.74
2017-09-05T07:37:12.759Z,60.03
2017-09-05T07:38:13.101Z,59.36
2017-09-05T07:39:13.207Z,59.45
2017-09-05T07:40:13.252Z,59.36
2017-09-05T07:41:13.284Z,59.64
2017-09-05T07:42:13.315Z,59.64
2017-09-05T07:43:12.878Z,59.16
2017-09-05T07:44:12.899Z,59.48
2017-09-05T07:45:13.233Z,59
2017-09-05T07:46:13.259Z,59
2017-09-05T07:47:13.276Z,59.19
2017-09-05T07:48:13.299Z,59.09
2017-09-05T07:49:12.989Z,59
2017-09-05T07:50:13.333Z,59.29
2017-09-05T07:51:13.035Z,58.52
2017-09-05T07:52:13.376Z,58.71
2017-09-05T07:53:13.406Z,58.23
2017-09-05T07:54:13.089Z,58.07
2017-09-05T07:55:13.439Z,57.95
2017-09-05T07:56:13.456Z,57.37
2017-09-05T07:57:13.475Z,57.59
2017-09-05T07:58:13.169Z,56.92
2017-09-05T07:59:13.513Z,57.21
2017-09-05T08:00:13.213Z,57.59
2017-09-05T08:01:13.554Z,57.21
2017-09-05T08:02:13.578Z,57.4
2017-09-05T08:03:13.270Z,57.68
2017-09-05T08:04:13.613Z,57.21
2017-09-05T08:05:13.636Z,57.3
2017-09-05T08:06:13.332Z,56.82
2017-09-05T08:07:13.681Z,57.23
2017-09-05T08:08:13.372Z,56.85
2017-09-05T08:09:13.399Z,56.85
2017-09-05T08:10:13.408Z,57.14
2017-09-05T08:11:13.755Z,56.95
2017-09-05T08:12:13.776Z,57.14
2017-09-05T08:13:13.796Z,57.04
2017-09-05T08:14:13.817Z,56.46
2017-09-05T08:15:13.853Z,56.4
2017-09-05T08:16:13.857Z,56.21
2017-09-05T08:17:14.187Z,56.3
2017-09-05T08:18:14.041Z,56.11
2017-09-05T08:19:14.040Z,56.01
2017-09-05T08:20:14.081Z,56.11
2017-09-05T08:21:13.730Z,55.24
2017-09-05T08:22:14.185Z,55.34
2017-09-05T08:23:14.186Z,55.53
2017-09-05T08:24:14.154Z,55.53
2017-09-05T08:25:14.189Z,55.85
2017-09-05T08:26:14.183Z,55.18
2017-09-05T08:27:13.956Z,55.56
2017-09-05T08:28:13.865Z,55.56
2017-09-05T08:29:13.897Z,55.76
2017-09-05T08:30:14.230Z,55.76
2017-09-05T08:31:14.232Z,55.27
2017-09-05T08:32:13.935Z,55.3
2017-09-05T08:33:13.931Z,54.34
2017-09-05T08:34:13.897Z,54.63
2017-09-05T08:35:13.923Z,54.82
2017-09-05T08:36:14.267Z,54.34
2017-09-05T08:37:14.285Z,54.53
2017-09-05T08:38:14.306Z,54.72
2017-09-05T08:39:14.327Z,53.86
2017-09-05T08:40:14.025Z,54.91
2017-09-05T08:41:14.044Z,54.27
2017-09-05T08:42:14.391Z,53.78
2017-09-05T08:43:14.414Z,52.83
2017-09-05T08:44:14.108Z,53.5
2017-09-05T08:45:14.456Z,53.4
2017-09-05T08:46:14.596Z,53.11
2017-09-05T08:47:14.524Z,53.31
2017-09-05T08:48:14.523Z,53.21
2017-09-05T08:49:14.213Z,52.85
2017-09-05T08:50:14.232Z,52.75
2017-09-05T08:51:14.680Z,52.95
2017-09-05T08:52:14.677Z,52.75
2017-09-05T08:53:14.688Z,52.85
2017-09-05T08:54:14.641Z,52.47
2017-09-05T08:55:14.662Z,52.66
2017-09-05T08:56:14.361Z,52.66
2017-09-05T08:57:14.715Z,52.3
2017-09-05T08:58:14.404Z,52.2
2017-09-05T08:59:14.756Z,52.01
2017-09-05T09:00:14.771Z,51.72
2017-09-05T09:01:14.467Z,51.14
2017-09-05T09:02:14.486Z,50.57
2017-09-05T09:03:14.831Z,50.85
2017-09-05T09:04:14.530Z,50.37
2017-09-05T09:05:14.879Z,50.66
2017-09-05T09:06:14.901Z,50.88
2017-09-05T09:07:14.921Z,50.59
2017-09-05T09:08:14.619Z,50.4
2017-09-05T09:09:14.960Z,50.3
2017-09-05T09:10:14.990Z,50.59
2017-09-05T09:11:15.010Z,50.69
2017-09-05T09:12:14.703Z,49.63
2017-09-05T09:13:15.043Z,49.53
2017-09-05T09:14:15.071Z,49.46
2017-09-05T09:15:14.769Z,49.65
2017-09-05T09:16:15.114Z,48.97
2017-09-05T09:17:15.140Z,48.79
2017-09-05T09:18:15.159Z,48.21
2017-09-05T09:19:15.179Z,48.4
2017-09-05T09:20:15.205Z,48.49
2017-09-05T09:21:15.220Z,48.4
2017-09-05T09:22:14.921Z,48.49
2017-09-05T09:23:14.944Z,48.4
2017-09-05T09:24:15.291Z,48.61
2017-09-05T09:25:15.314Z,48.61
2017-09-05T09:26:15.006Z,48.33
2017-09-05T09:27:15.355Z,48.42
2017-09-05T09:28:15.487Z,48.42
2017-09-05T09:29:15.074Z,48.42
2017-09-05T09:30:15.097Z,48.42
2017-09-05T09:31:15.532Z,48.33
2017-09-05T09:32:15.553Z,48.54
2017-09-05T09:33:15.489Z,48.06
2017-09-05T09:34:15.513Z,48.06
2017-09-05T09:35:15.528Z,47.67
2017-09-05T09:36:15.557Z,47.29
2017-09-05T09:37:15.253Z,46.71
2017-09-05T09:38:15.600Z,46.13
2017-09-05T09:39:15.626Z,45.84
2017-09-05T09:40:15.646Z,45.38
2017-09-05T09:41:15.342Z,45
2017-09-05T09:42:15.690Z,44.87
2017-09-05T09:43:15.720Z,44.51
2017-09-05T09:44:15.736Z,44.22
2017-09-05T09:45:15.435Z,43.93
2017-09-05T09:46:15.781Z,43.84
2017-09-05T09:47:15.803Z,43.84
2017-09-05T09:48:15.503Z,44.12
2017-09-05T09:49:15.524Z,43.84
2017-09-05T09:50:15.873Z,44.32
2017-09-05T09:51:15.566Z,44.42
2017-09-05T09:52:15.592Z,44.51
2017-09-05T09:53:15.615Z,44.63
2017-09-05T09:54:15.638Z,44.43
2017-09-05T09:55:15.987Z,44.63
2017-09-05T09:56:15.685Z,44.53
2017-09-05T09:57:15.709Z,43.85
2017-09-05T09:58:16.052Z,44.17
2017-09-05T09:59:15.751Z,43.59
2017-09-05T10:00:15.784Z,43.59
2017-09-05T10:01:15.799Z,43.4
2017-09-05T10:02:15.821Z,43.68
2017-09-05T10:03:15.846Z,42.82
2017-09-05T10:04:16.195Z,43.3
2017-09-05T10:05:16.220Z,42.74
2017-09-05T10:06:16.247Z,42.45
2017-09-05T10:07:15.938Z,42.45
2017-09-05T10:08:16.280Z,41.77
2017-09-05T10:09:16.311Z,41.39
2017-09-05T10:10:16.008Z,41.19
2017-09-05T10:11:16.032Z,41.31
2017-09-05T10:12:16.379Z,41.29
2017-09-05T10:13:16.434Z,41.31
2017-09-05T10:14:16.456Z,41.31
2017-09-05T10:15:16.122Z,41.02
2017-09-05T10:16:16.513Z,41.11
2017-09-05T10:17:16.512Z,41.31
2017-09-05T10:18:16.642Z,40.73
2017-09-05T10:19:16.584Z,40.36
2017-09-05T10:20:16.599Z,40.25
2017-09-05T10:21:16.718Z,39.78
2017-09-05T10:22:16.740Z,39.88
2017-09-05T10:23:16.427Z,40.17
2017-09-05T10:24:16.756Z,39.59
2017-09-05T10:25:16.610Z,39.49
2017-09-05T10:26:16.623Z,39.49
2017-09-05T10:27:16.631Z,39.29
2017-09-05T10:28:16.684Z,38.93
2017-09-05T10:29:16.556Z,38.73
2017-09-05T10:30:16.897Z,38.64
2017-09-05T10:31:16.731Z,38.54
2017-09-05T10:32:16.753Z,38.73
2017-09-05T10:33:17.121Z,38.73
2017-09-05T10:34:16.996Z,38.54
2017-09-05T10:35:17.022Z,38.45
2017-09-05T10:36:17.023Z,38.76
2017-09-05T10:37:17.082Z,38.95
2017-09-05T10:38:16.802Z,38.76
2017-09-05T10:39:16.780Z,38.56
2017-09-05T10:40:16.801Z,37.79
2017-09-05T10:41:17.071Z,37.9
2017-09-05T10:42:17.224Z,37.71
2017-09-05T10:43:16.804Z,36.93
2017-09-05T10:44:16.821Z,36.35
2017-09-05T10:45:16.850Z,36.44
2017-09-05T10:46:16.875Z,36.35
2017-09-05T10:47:17.223Z,35.86
2017-09-05T10:48:17.246Z,35.86
2017-09-05T10:49:17.272Z,36.06
2017-09-05T10:50:17.296Z,35.78
2017-09-05T10:51:17.323Z,35.78
2017-09-05T10:52:17.346Z,36.18
2017-09-05T10:53:17.371Z,35.59
2017-09-05T10:54:17.396Z,35.4
2017-09-05T10:55:17.430Z,35.61
2017-09-05T10:56:17.449Z,35.71
2017-09-05T10:57:17.474Z,35.51
2017-09-05T10:58:17.177Z,35.51
2017-09-05T10:59:17.529Z,35.71
2017-09-05T11:00:17.225Z,35.72
2017-09-05T11:01:17.568Z,35.24
2017-09-05T11:02:17.598Z,34.85
2017-09-05T11:03:17.300Z,34.36
2017-09-05T11:04:17.331Z,34.36
2017-09-05T11:05:17.675Z,34.38
2017-09-05T11:06:17.694Z,34.38
2017-09-05T11:07:17.720Z,34.19
2017-09-05T11:08:17.426Z,33.8
2017-09-05T11:09:17.771Z,33.61
2017-09-05T11:10:17.803Z,33.8
2017-09-05T11:11:17.822Z,33.99
2017-09-05T11:12:17.847Z,33.61
2017-09-05T11:13:17.878Z,33.81
2017-09-05T11:14:17.906Z,33.14
2017-09-05T11:15:17.930Z,33.04
2017-09-05T11:16:17.631Z,32.94
2017-09-05T11:17:17.982Z,31.87
2017-09-05T11:18:18.008Z,32.26
2017-09-05T11:19:18.033Z,32.35
2017-09-05T11:20:18.053Z,31.77
2017-09-05T11:21:18.085Z,31.58
2017-09-05T11:22:18.105Z,31.87
2017-09-05T11:23:17.812Z,31.48
2017-09-05T11:24:18.161Z,31.6
2017-09-05T11:25:18.192Z,31.6
2017-09-05T11:26:17.890Z,31.58
2017-09-05T11:27:18.238Z,31.3
2017-09-05T11:28:18.270Z,31.3
2017-09-05T11:29:18.291Z,31.7
2017-09-05T11:30:18.318Z,31.21
2017-09-05T11:31:18.344Z,31.21
2017-09-05T11:32:18.090Z,31.11
2017-09-05T11:33:18.395Z,31.22
2017-09-05T11:34:18.429Z,31.21
2017-09-05T11:35:18.125Z,31.22
2017-09-05T11:36:18.150Z,30.83
2017-09-05T11:37:18.501Z,30.54
2017-09-05T11:38:18.205Z,30.25
2017-09-05T11:39:18.231Z,30.44
2017-09-05T11:40:18.259Z,30.25
2017-09-05T11:41:18.610Z,30.15
2017-09-05T11:42:18.315Z,30.26
2017-09-05T11:43:18.338Z,30.17
2017-09-05T11:44:18.365Z,30.26
2017-09-05T11:45:18.717Z,30.26
2017-09-05T11:46:18.751Z,30.17
2017-09-05T11:47:18.770Z,29.88
2017-09-05T11:48:18.470Z,29.88
2017-09-05T11:49:18.848Z,29.88
2017-09-05T11:50:18.855Z,28.92
2017-09-05T11:51:18.551Z,29.5
2017-09-05T11:52:18.904Z,28.92
2017-09-05T11:53:18.671Z,29.11
2017-09-05T11:54:18.978Z,28.92
2017-09-05T11:55:18.994Z,28.92
2017-09-05T11:56:18.684Z,28.63
2017-09-05T11:57:18.717Z,29.02
2017-09-05T11:58:19.177Z,28.82
2017-09-05T11:59:18.768Z,29.5
2017-09-05T12:00:19.118Z,29.11
2017-09-05T12:01:18.819Z,29.11
2017-09-05T12:02:19.175Z,28.83
2017-09-05T12:03:19.202Z,29.22
2017-09-05T12:04:18.905Z,29.22
2017-09-05T12:05:19.255Z,29.13
2017-09-05T12:06:19.280Z,29.03
2017-09-05T12:07:18.987Z,28.64
2017-09-05T12:08:19.012Z,28.34
2017-09-05T12:09:19.368Z,28.83
2017-09-05T12:10:19.385Z,28.74
2017-09-05T12:11:19.416Z,29.13
2017-09-05T12:12:19.123Z,29.03
2017-09-05T12:13:19.478Z,28.74
2017-09-05T12:14:19.501Z,28.74
2017-09-05T12:15:19.527Z,28.45
2017-09-05T12:16:19.558Z,28.94
2017-09-05T12:17:19.259Z,29.04
2017-09-05T12:18:19.615Z,29.33
2017-09-05T12:19:19.317Z,28.65
2017-09-05T12:20:19.343Z,28.94
2017-09-05T12:21:19.693Z,28.94
2017-09-05T12:22:19.400Z,28.85
2017-09-05T12:23:19.427Z,28.45
2017-09-05T12:24:19.776Z,28.85
2017-09-05T12:25:19.479Z,28.65
2017-09-05T12:26:19.513Z,28.26
2017-09-05T12:27:19.539Z,28.08
2017-09-05T12:28:19.562Z,28.18
2017-09-05T12:29:19.920Z,28.28
2017-09-05T12:30:19.941Z,28.67
2017-09-05T12:31:19.976Z,28.28
2017-09-05T12:32:19.998Z,28.77
2017-09-05T12:33:19.704Z,28.18
2017-09-05T12:34:20.051Z,28.67
2017-09-05T12:35:20.088Z,28.57
2017-09-05T12:36:20.114Z,28.47
2017-09-05T12:37:20.140Z,28.49
2017-09-05T12:38:20.173Z,28.58
2017-09-05T12:39:19.870Z,28.58
2017-09-05T12:40:20.221Z,28.49
2017-09-05T12:41:20.251Z,27.8
2017-09-05T12:42:20.281Z,28.19
2017-09-05T12:43:19.981Z,28.19
2017-09-05T12:44:20.340Z,27.61
2017-09-05T12:45:20.037Z,28.19
2017-09-05T12:46:20.388Z,28.19
2017-09-05T12:47:20.098Z,28.19
2017-09-05T12:48:20.450Z,27.7
2017-09-05T12:49:20.526Z,27.8
2017-09-05T12:50:20.505Z,27.72
2017-09-05T12:51:20.537Z,27.51
2017-09-05T12:52:20.566Z,27.61
2017-09-05T12:53:20.594Z,27.81
2017-09-05T12:54:20.296Z,27.72
2017-09-05T12:55:20.649Z,28.01